createdAt,value
2019-04-25T00:00:46.638Z,8.31
2019-04-25T00:01:46.620Z,8.31
2019-04-25T00:02:46.603Z,8.20
2019-04-25T00:03:46.678Z,8.13
2019-04-25T00:04:46.781Z,8.13
2019-04-25T00:05:46.865Z,8.13
2019-04-25T00:06:46.876Z,8.08
2019-04-25T00:07:47.119Z,7.95
2019-04-25T00:08:47.297Z,7.90
2019-04-25T00:09:47.307Z,7.87
2019-04-25T00:10:46.468Z,7.72
2019-04-25T00:11:47.886Z,7.67
2019-04-25T00:12:46.434Z,7.62
2019-04-25T00:13:46.420Z,7.59
2019-04-25T00:14:46.410Z,7.46
2019-04-25T00:15:47.091Z,7.46
2019-04-25T00:16:47.084Z,7.32
2019-04-25T00:17:46.351Z,7.26
2019-04-25T00:18:46.351Z,7.23
2019-04-25T00:19:46.463Z,7.18
2019-04-25T00:20:46.590Z,7.08
2019-04-25T00:21:46.715Z,7.04
2019-04-25T00:22:46.975Z,7.13
2019-04-25T00:23:47.091Z,7.13
2019-04-25T00:24:46.230Z,6.97
2019-04-25T00:25:47.800Z,6.97
2019-04-25T00:26:46.341Z,6.93
2019-04-25T00:27:47.113Z,6.90
2019-04-25T00:28:46.719Z,6.83
2019-04-25T00:29:46.807Z,6.87
2019-04-25T00:30:46.128Z,6.77
2019-04-25T00:31:46.104Z,6.77
2019-04-25T00:32:46.090Z,6.82
2019-04-25T00:33:46.106Z,6.71
2019-04-25T00:34:46.631Z,6.62
2019-04-25T00:35:46.033Z,6.64
2019-04-25T00:36:46.740Z,6.60
2019-04-25T00:37:46.191Z,6.54
2019-04-25T00:38:47.829Z,6.53
2019-04-25T00:39:46.161Z,6.36
2019-04-25T00:40:45.956Z,6.49
2019-04-25T00:41:46.407Z,6.39
2019-04-25T00:42:46.245Z,6.36
2019-04-25T00:43:45.899Z,6.36
2019-04-25T00:44:45.969Z,6.26
2019-04-25T00:45:45.885Z,6.29
2019-04-25T00:46:48.767Z,6.15
2019-04-25T00:47:45.836Z,6.19
2019-04-25T00:48:45.816Z,6.16
2019-04-25T00:49:46.058Z,6.09
2019-04-25T00:50:46.017Z,6.05
2019-04-25T00:51:46.149Z,6.06
2019-04-25T00:52:46.219Z,6.01
2019-04-25T00:53:46.102Z,6.07
2019-04-25T00:54:46.273Z,5.99
2019-04-25T00:55:46.405Z,5.99
2019-04-25T00:56:46.967Z,5.99
2019-04-25T00:57:45.658Z,5.90
2019-04-25T00:58:45.635Z,5.90
2019-04-25T00:59:45.624Z,5.84
2019-04-25T01:00:45.653Z,5.88
2019-04-25T01:01:46.600Z,5.88
2019-04-25T01:02:45.570Z,5.84
2019-04-25T01:03:45.552Z,5.80
2019-04-25T01:04:45.534Z,5.84
2019-04-25T01:05:45.750Z,5.84
2019-04-25T01:06:45.512Z,5.84
2019-04-25T01:07:45.637Z,5.81
2019-04-25T01:08:45.805Z,5.79
2019-04-25T01:09:45.699Z,5.76
2019-04-25T01:10:45.863Z,5.73
2019-04-25T01:11:45.903Z,5.80
2019-04-25T01:12:46.150Z,5.79
2019-04-25T01:13:46.173Z,5.73
2019-04-25T01:14:45.703Z,5.79
2019-04-25T01:15:45.329Z,5.79
2019-04-25T01:16:45.333Z,5.74
2019-04-25T01:17:45.504Z,5.80
2019-04-25T01:18:45.424Z,5.83
2019-04-25T01:19:45.792Z,5.74
2019-04-25T01:20:45.518Z,5.74
2019-04-25T01:21:45.590Z,5.79
2019-04-25T01:22:45.783Z,5.79
2019-04-25T01:23:45.820Z,5.72
2019-04-25T01:24:45.707Z,5.73
2019-04-25T01:25:46.724Z,5.70
2019-04-25T01:26:45.890Z,5.77
2019-04-25T01:27:46.058Z,5.70
2019-04-25T01:28:46.114Z,5.67
2019-04-25T01:29:46.199Z,5.77
2019-04-25T01:30:46.275Z,5.73
2019-04-25T01:31:46.487Z,5.69
2019-04-25T01:32:45.033Z,5.59
2019-04-25T01:33:45.033Z,5.65
2019-04-25T01:34:45.000Z,5.64
2019-04-25T01:35:45.051Z,5.65
2019-04-25T01:36:44.964Z,5.67
2019-04-25T01:37:44.947Z,5.65
2019-04-25T01:38:44.931Z,5.64
2019-04-25T01:39:44.906Z,5.72
2019-04-25T01:40:44.896Z,5.59
2019-04-25T01:41:44.965Z,5.62
2019-04-25T01:42:44.878Z,5.62
2019-04-25T01:43:44.842Z,5.64
2019-04-25T01:44:44.824Z,5.62
2019-04-25T01:45:44.808Z,5.67
2019-04-25T01:46:44.786Z,5.59
2019-04-25T01:47:45.509Z,5.61
2019-04-25T01:48:44.756Z,5.62
2019-04-25T01:49:44.734Z,5.56
2019-04-25T01:50:44.723Z,5.67
2019-04-25T01:51:44.705Z,5.59
2019-04-25T01:52:44.722Z,5.69
2019-04-25T01:53:44.658Z,5.72
2019-04-25T01:54:44.651Z,5.72
2019-04-25T01:55:53.743Z,5.73
2019-04-25T01:56:44.613Z,5.79
2019-04-25T01:57:45.342Z,5.81
2019-04-25T01:58:44.571Z,5.79
2019-04-25T01:59:44.556Z,5.83
2019-04-25T02:00:44.993Z,5.90
2019-04-25T02:01:44.522Z,5.87
2019-04-25T02:02:44.509Z,5.97
2019-04-25T02:03:44.478Z,5.94
2019-04-25T02:04:44.467Z,6.02
2019-04-25T02:05:44.451Z,6.06
2019-04-25T02:06:44.434Z,6.13
2019-04-25T02:07:44.464Z,6.20
2019-04-25T02:08:44.396Z,6.22
2019-04-25T02:09:44.405Z,6.26
2019-04-25T02:10:44.359Z,6.25
2019-04-25T02:11:44.351Z,6.36
2019-04-25T02:12:44.338Z,6.29
2019-04-25T02:13:44.308Z,6.43
2019-04-25T02:14:44.299Z,6.47
2019-04-25T02:15:44.275Z,6.46
2019-04-25T02:16:44.253Z,6.56
2019-04-25T02:17:44.252Z,6.60
2019-04-25T02:18:44.232Z,6.57
2019-04-25T02:19:44.291Z,6.62
2019-04-25T02:20:44.184Z,6.62
2019-04-25T02:21:44.171Z,6.65
2019-04-25T02:22:44.252Z,6.72
2019-04-25T02:23:44.293Z,6.70
2019-04-25T02:24:44.118Z,6.78
2019-04-25T02:25:44.322Z,6.72
2019-04-25T02:26:44.082Z,6.77
2019-04-25T02:27:44.251Z,6.71
2019-04-25T02:28:44.052Z,6.82
2019-04-25T02:29:44.782Z,6.78
2019-04-25T02:30:45.440Z,6.83
2019-04-25T02:31:44.977Z,6.77
2019-04-25T02:32:44.281Z,6.80
2019-04-25T02:33:44.393Z,6.87
2019-04-25T02:34:45.608Z,6.89
2019-04-25T02:35:46.584Z,6.95
2019-04-25T02:36:46.680Z,6.93
2019-04-25T02:37:45.145Z,7.01
2019-04-25T02:38:44.299Z,6.93
2019-04-25T02:39:44.739Z,6.95
2019-04-25T02:40:45.419Z,6.96
2019-04-25T02:41:44.481Z,6.92
2019-04-25T02:42:44.339Z,7.07
2019-04-25T02:43:45.012Z,7.08
2019-04-25T02:44:44.545Z,7.07
2019-04-25T02:45:44.228Z,6.97
2019-04-25T02:46:44.951Z,7.13
2019-04-25T02:47:44.234Z,7.13
2019-04-25T02:48:44.239Z,7.07
2019-04-25T02:49:44.689Z,7.08
2019-04-25T02:50:46.153Z,7.07
2019-04-25T02:51:45.102Z,7.19
2019-04-25T02:52:44.384Z,7.08
2019-04-25T02:53:44.660Z,7.03
2019-04-25T02:54:44.933Z,7.14
2019-04-25T02:55:44.593Z,7.15
2019-04-25T02:56:46.426Z,7.19
2019-04-25T02:57:44.866Z,7.14
2019-04-25T02:58:44.299Z,7.14
2019-04-25T02:59:45.098Z,7.18
2019-04-25T03:00:54.857Z,7.18
2019-04-25T03:01:44.465Z,7.25
2019-04-25T03:02:44.568Z,7.28
2019-04-25T03:03:44.944Z,7.28
2019-04-25T03:04:44.460Z,7.25
2019-04-25T03:05:47.183Z,7.26
2019-04-25T03:06:45.299Z,7.21
2019-04-25T03:07:44.512Z,7.25
2019-04-25T03:08:44.886Z,7.25
2019-04-25T03:09:45.100Z,7.18
2019-04-25T03:10:44.308Z,7.21
2019-04-25T03:11:45.217Z,7.22
2019-04-25T03:12:44.688Z,7.19
2019-04-25T03:13:44.153Z,7.05
2019-04-25T03:14:44.614Z,7.05
2019-04-25T03:15:44.226Z,7.05
2019-04-25T03:16:44.829Z,7.10
2019-04-25T03:17:44.426Z,7.01
2019-04-25T03:18:44.329Z,7.03
2019-04-25T03:19:43.969Z,7.14
2019-04-25T03:20:45.131Z,7.08
2019-04-25T03:21:45.225Z,7.03
2019-04-25T03:22:44.413Z,7.10
2019-04-25T03:23:46.042Z,7.13
2019-04-25T03:24:43.081Z,7.11
2019-04-25T03:25:43.475Z,7.14
2019-04-25T03:26:44.300Z,7.08
2019-04-25T03:27:44.095Z,7.18
2019-04-25T03:28:43.834Z,7.07
2019-04-25T03:29:44.333Z,7.03
2019-04-25T03:30:44.886Z,7.14
2019-04-25T03:31:45.048Z,7.15
2019-04-25T03:32:45.151Z,7.18
2019-04-25T03:33:45.906Z,7.04
2019-04-25T03:34:43.478Z,7.07
2019-04-25T03:35:43.278Z,7.13
2019-04-25T03:36:43.895Z,7.04
2019-04-25T03:37:43.603Z,7.01
2019-04-25T03:38:44.165Z,7.04
2019-04-25T03:39:43.645Z,7.07
2019-04-25T03:40:43.952Z,7.00
2019-04-25T03:41:43.825Z,7.07
2019-04-25T03:42:43.919Z,7.03
2019-04-25T03:43:44.146Z,7.08
2019-04-25T03:44:43.803Z,6.95
2019-04-25T03:45:43.225Z,7.05
2019-04-25T03:46:43.846Z,7.04
2019-04-25T03:47:43.191Z,7.04
2019-04-25T03:48:44.086Z,7.04
2019-04-25T03:49:43.479Z,6.97
2019-04-25T03:50:44.067Z,7.04
2019-04-25T03:51:43.858Z,7.10
2019-04-25T03:52:43.577Z,6.95
2019-04-25T03:53:43.786Z,6.97
2019-04-25T03:54:43.396Z,7.07
2019-04-25T03:55:44.036Z,7.03
2019-04-25T03:56:53.287Z,7.15
2019-04-25T03:57:44.262Z,7.13
2019-04-25T03:58:43.897Z,7.21
2019-04-25T03:59:43.735Z,7.23
2019-04-25T04:00:44.587Z,7.22
2019-04-25T04:01:43.877Z,7.23
2019-04-25T04:02:44.094Z,7.29
2019-04-25T04:03:43.848Z,7.41
2019-04-25T04:04:43.532Z,7.47
2019-04-25T04:05:43.795Z,7.59
2019-04-25T04:06:43.991Z,7.75
2019-04-25T04:07:43.481Z,7.88
2019-04-25T04:08:44.102Z,7.91
2019-04-25T04:09:43.522Z,8.11
2019-04-25T04:10:43.265Z,8.11
2019-04-25T04:11:43.519Z,8.18
2019-04-25T04:12:42.240Z,8.16
2019-04-25T04:13:43.820Z,8.16
2019-04-25T04:14:43.709Z,8.13
2019-04-25T04:15:43.399Z,8.18
2019-04-25T04:16:42.175Z,8.20
2019-04-25T04:17:43.716Z,8.18
2019-04-25T04:18:42.137Z,8.13
2019-04-25T04:19:43.567Z,8.08
2019-04-25T04:20:43.483Z,8.24
2019-04-25T04:21:43.223Z,8.28
2019-04-25T04:22:43.770Z,8.24
2019-04-25T04:23:43.060Z,8.27
2019-04-25T04:24:43.938Z,8.36
2019-04-25T04:25:43.266Z,8.36
2019-04-25T04:26:43.119Z,8.32
2019-04-25T04:27:41.983Z,8.41
2019-04-25T04:28:43.463Z,8.41
2019-04-25T04:29:43.242Z,8.38
2019-04-25T04:30:41.950Z,8.39
2019-04-25T04:31:43.146Z,8.41
2019-04-25T04:32:41.896Z,8.42
2019-04-25T04:33:43.110Z,8.36
2019-04-25T04:34:43.528Z,8.42
2019-04-25T04:35:41.842Z,8.41
2019-04-25T04:36:41.828Z,8.45
2019-04-25T04:37:43.148Z,8.35
2019-04-25T04:38:41.827Z,8.28
2019-04-25T04:39:43.612Z,8.39
2019-04-25T04:40:41.764Z,8.31
2019-04-25T04:41:41.742Z,8.41
2019-04-25T04:42:43.429Z,8.41
2019-04-25T04:43:41.706Z,8.42
2019-04-25T04:44:41.716Z,8.46
2019-04-25T04:45:45.014Z,8.45
2019-04-25T04:46:41.674Z,8.56
2019-04-25T04:47:43.251Z,8.53
2019-04-25T04:48:41.625Z,8.56
2019-04-25T04:49:41.619Z,8.57
2019-04-25T04:50:43.136Z,8.59
2019-04-25T04:51:41.572Z,8.50
2019-04-25T04:52:41.559Z,8.54
2019-04-25T04:53:41.537Z,8.50
2019-04-25T04:54:41.530Z,8.46
2019-04-25T04:55:42.874Z,8.53
2019-04-25T04:56:41.502Z,8.46
2019-04-25T04:57:41.472Z,8.49
2019-04-25T04:58:43.071Z,8.45
2019-04-25T04:59:41.431Z,8.44
2019-04-25T05:00:41.425Z,8.45
2019-04-25T05:01:41.418Z,8.42
2019-04-25T05:02:41.384Z,8.42
2019-04-25T05:03:41.369Z,8.38
2019-04-25T05:04:45.727Z,8.35
2019-04-25T05:05:41.351Z,8.27
2019-04-25T05:06:41.319Z,8.38
2019-04-25T05:07:41.305Z,8.24
2019-04-25T05:08:41.306Z,8.21
2019-04-25T05:09:41.287Z,8.24
2019-04-25T05:10:41.257Z,8.16
2019-04-25T05:11:41.231Z,8.17
2019-04-25T05:12:41.219Z,8.14
2019-04-25T05:13:41.221Z,8.08
2019-04-25T05:14:41.181Z,8.18
2019-04-25T05:15:41.165Z,8.18
2019-04-25T05:16:41.154Z,8.09
2019-04-25T05:17:41.136Z,8.16
2019-04-25T05:18:41.119Z,8.14
2019-04-25T05:19:41.097Z,8.20
2019-04-25T05:20:41.086Z,8.14
2019-04-25T05:21:41.086Z,8.17
2019-04-25T05:22:41.048Z,8.17
2019-04-25T05:23:41.035Z,8.24
2019-04-25T05:24:41.024Z,8.16
2019-04-25T05:25:41.002Z,8.32
2019-04-25T05:26:40.979Z,8.39
2019-04-25T05:27:57.797Z,8.38
2019-04-25T05:28:40.945Z,8.41
2019-04-25T05:29:40.923Z,8.42
2019-04-25T05:30:40.923Z,8.49
2019-04-25T05:31:40.894Z,8.57
2019-04-25T05:32:40.945Z,8.57
2019-04-25T05:33:40.865Z,8.64
2019-04-25T05:34:40.865Z,8.79
2019-04-25T05:35:40.850Z,8.84
2019-04-25T05:36:40.840Z,8.82
2019-04-25T05:37:40.796Z,8.97
2019-04-25T05:38:40.779Z,9.18
2019-04-25T05:39:40.766Z,9.29
2019-04-25T05:40:40.743Z,9.51
2019-04-25T05:41:40.733Z,9.56
2019-04-25T05:42:40.714Z,9.66
2019-04-25T05:43:40.699Z,9.67
2019-04-25T05:44:40.680Z,9.85
2019-04-25T05:45:40.666Z,9.94
2019-04-25T05:46:40.648Z,10.00
2019-04-25T05:47:40.633Z,9.99
2019-04-25T05:48:40.616Z,10.10
2019-04-25T05:49:40.603Z,10.17
2019-04-25T05:50:40.586Z,10.24
2019-04-25T05:51:40.585Z,10.34
2019-04-25T05:52:40.553Z,10.31
2019-04-25T05:53:40.537Z,10.38
2019-04-25T05:54:40.521Z,10.28
2019-04-25T05:55:40.499Z,10.38
2019-04-25T05:56:40.487Z,10.49
2019-04-25T05:57:47.342Z,10.43
2019-04-25T05:58:40.453Z,10.48
2019-04-25T05:59:40.445Z,10.59
2019-04-25T06:00:40.424Z,10.57
2019-04-25T06:01:40.413Z,10.61
2019-04-25T06:02:40.390Z,10.64
2019-04-25T06:03:40.404Z,10.62
2019-04-25T06:04:40.399Z,10.59
2019-04-25T06:05:40.359Z,10.64
2019-04-25T06:06:40.334Z,10.64
2019-04-25T06:07:40.314Z,10.67
2019-04-25T06:08:40.303Z,10.69
2019-04-25T06:09:40.285Z,10.72
2019-04-25T06:10:40.294Z,10.76
2019-04-25T06:11:40.255Z,10.80
2019-04-25T06:12:40.236Z,10.83
2019-04-25T06:13:40.222Z,10.90
2019-04-25T06:14:40.212Z,10.87
2019-04-25T06:15:40.190Z,10.90
2019-04-25T06:16:40.183Z,11.01
2019-04-25T06:17:40.161Z,11.02
2019-04-25T06:18:40.145Z,11.12
2019-04-25T06:19:40.127Z,11.10
2019-04-25T06:20:40.112Z,11.16
2019-04-25T06:21:40.096Z,11.23
2019-04-25T06:22:40.096Z,11.23
2019-04-25T06:23:40.071Z,11.38
2019-04-25T06:24:40.071Z,11.35
2019-04-25T06:25:40.117Z,11.51
2019-04-25T06:26:40.180Z,11.48
2019-04-25T06:27:40.005Z,11.51
2019-04-25T06:28:51.987Z,11.55
2019-04-25T06:29:39.975Z,11.60
2019-04-25T06:30:39.964Z,11.67
2019-04-25T06:31:39.948Z,11.74
2019-04-25T06:32:39.939Z,11.78
2019-04-25T06:33:40.020Z,11.89
2019-04-25T06:34:39.922Z,11.95
2019-04-25T06:35:39.880Z,12.08
2019-04-25T06:36:39.891Z,12.10
2019-04-25T06:37:39.851Z,12.10
2019-04-25T06:38:39.842Z,12.23
2019-04-25T06:39:39.827Z,12.29
2019-04-25T06:40:39.811Z,12.35
2019-04-25T06:41:39.805Z,12.45
2019-04-25T06:42:39.777Z,12.48
2019-04-25T06:43:39.774Z,12.61
2019-04-25T06:44:39.771Z,12.54
2019-04-25T06:45:39.738Z,12.76
2019-04-25T06:46:39.730Z,12.72
2019-04-25T06:47:39.713Z,12.76
2019-04-25T06:48:39.694Z,12.81
2019-04-25T06:49:39.688Z,12.90
2019-04-25T06:50:39.671Z,12.91
2019-04-25T06:51:39.652Z,13.05
2019-04-25T06:52:39.634Z,13.05
2019-04-25T06:53:39.629Z,13.11
2019-04-25T06:54:39.610Z,13.16
2019-04-25T06:55:39.599Z,13.09
2019-04-25T06:56:39.584Z,13.21
2019-04-25T06:57:39.575Z,13.36
2019-04-25T06:58:39.560Z,13.45
2019-04-25T06:59:41.393Z,13.55
2019-04-25T07:00:42.677Z,13.61
2019-04-25T07:01:39.512Z,13.67
2019-04-25T07:02:39.506Z,13.68
2019-04-25T07:03:39.503Z,13.76
2019-04-25T07:04:39.481Z,13.85
2019-04-25T07:05:40.687Z,14.00
2019-04-25T07:06:39.456Z,13.98
2019-04-25T07:07:39.428Z,14.03
2019-04-25T07:08:39.419Z,14.03
2019-04-25T07:09:39.472Z,14.11
2019-04-25T07:10:39.391Z,14.15
2019-04-25T07:11:39.375Z,14.26
2019-04-25T07:12:39.370Z,14.34
2019-04-25T07:13:39.354Z,14.45
2019-04-25T07:14:39.348Z,14.51
2019-04-25T07:15:39.328Z,14.58
2019-04-25T07:16:39.319Z,14.61
2019-04-25T07:17:39.317Z,14.73
2019-04-25T07:18:39.299Z,14.82
2019-04-25T07:19:39.275Z,15.00
2019-04-25T07:20:39.266Z,15.02
2019-04-25T07:21:39.253Z,15.14
2019-04-25T07:22:39.259Z,15.15
2019-04-25T07:23:39.222Z,15.35
2019-04-25T07:24:39.220Z,15.30
2019-04-25T07:25:39.227Z,15.37
2019-04-25T07:26:39.826Z,15.47
2019-04-25T07:27:39.199Z,15.59
2019-04-25T07:28:39.174Z,15.63
2019-04-25T07:29:39.152Z,15.69
2019-04-25T07:30:49.900Z,15.78
2019-04-25T07:31:39.131Z,15.96
2019-04-25T07:32:39.129Z,16.00
2019-04-25T07:33:39.125Z,16.05
2019-04-25T07:34:39.116Z,16.22
2019-04-25T07:35:39.089Z,16.22
2019-04-25T07:36:39.081Z,16.41
2019-04-25T07:37:41.589Z,16.51
2019-04-25T07:38:39.055Z,16.65
2019-04-25T07:39:39.047Z,16.66
2019-04-25T07:40:39.046Z,16.79
2019-04-25T07:41:39.031Z,16.94
2019-04-25T07:42:39.009Z,17.10
2019-04-25T07:43:39.012Z,17.16
2019-04-25T07:44:49.677Z,17.23
2019-04-25T07:45:38.982Z,17.46
2019-04-25T07:46:39.953Z,17.56
2019-04-25T07:47:39.012Z,17.59
2019-04-25T07:48:38.955Z,17.72
2019-04-25T07:49:38.958Z,17.87
2019-04-25T07:50:38.944Z,18.03
2019-04-25T07:51:38.917Z,18.09
2019-04-25T07:52:38.919Z,18.09
2019-04-25T07:53:38.903Z,18.13
2019-04-25T07:54:38.908Z,18.26
2019-04-25T07:55:38.900Z,18.33
2019-04-25T07:56:38.873Z,18.37
2019-04-25T07:57:38.867Z,18.39
2019-04-25T07:58:49.609Z,18.53
2019-04-25T07:59:38.863Z,18.61
2019-04-25T08:00:38.840Z,18.71
2019-04-25T08:01:39.120Z,18.83
2019-04-25T08:02:39.562Z,18.74
2019-04-25T08:03:38.815Z,18.85
2019-04-25T08:04:38.807Z,19.04
2019-04-25T08:05:38.796Z,19.05
2019-04-25T08:06:38.789Z,19.09
2019-04-25T08:07:38.775Z,19.29
2019-04-25T08:08:38.771Z,19.27
2019-04-25T08:09:38.761Z,19.27
2019-04-25T08:10:38.761Z,19.30
2019-04-25T08:11:38.742Z,19.39
2019-04-25T08:12:39.436Z,19.52
2019-04-25T08:13:38.734Z,19.60
2019-04-25T08:14:38.721Z,19.64
2019-04-25T08:15:38.712Z,19.85
2019-04-25T08:16:39.305Z,19.94
2019-04-25T08:17:39.867Z,20.11
2019-04-25T08:18:38.947Z,20.36
2019-04-25T08:19:39.342Z,20.52
2019-04-25T08:20:38.676Z,20.56
2019-04-25T08:21:38.670Z,20.64
2019-04-25T08:22:51.959Z,20.74
2019-04-25T08:23:38.945Z,20.88
2019-04-25T08:24:39.115Z,20.89
2019-04-25T08:25:39.647Z,21.00
2019-04-25T08:26:39.390Z,21.08
2019-04-25T08:27:38.902Z,21.19
2019-04-25T08:28:50.171Z,21.30
2019-04-25T08:29:39.723Z,21.41
2019-04-25T08:30:38.625Z,21.54
2019-04-25T08:31:39.364Z,21.66
2019-04-25T08:32:39.563Z,21.77
2019-04-25T08:33:39.102Z,21.88
2019-04-25T08:34:38.694Z,21.92
2019-04-25T08:35:38.571Z,22.06
2019-04-25T08:36:39.839Z,22.22
2019-04-25T08:37:38.562Z,22.37
2019-04-25T08:38:38.610Z,22.65
2019-04-25T08:39:39.715Z,22.78
2019-04-25T08:40:39.015Z,23.11
2019-04-25T08:41:38.556Z,23.48
2019-04-25T08:42:38.531Z,23.73
2019-04-25T08:43:39.384Z,23.86
2019-04-25T08:44:39.238Z,24.09
2019-04-25T08:45:38.548Z,24.28
2019-04-25T08:46:39.444Z,24.44
2019-04-25T08:47:39.379Z,24.84
2019-04-25T08:48:38.491Z,25.12
2019-04-25T08:49:38.488Z,25.30
2019-04-25T08:50:40.181Z,25.49
2019-04-25T08:51:38.477Z,25.62
2019-04-25T08:52:38.480Z,25.73
2019-04-25T08:53:38.904Z,25.89
2019-04-25T08:54:41.526Z,25.89
2019-04-25T08:55:38.462Z,26.06
2019-04-25T08:56:38.457Z,25.99
2019-04-25T08:57:38.451Z,26.15
2019-04-25T08:58:39.152Z,26.11
2019-04-25T08:59:43.293Z,26.10
2019-04-25T09:00:38.459Z,26.26
2019-04-25T09:01:40.601Z,26.34
2019-04-25T09:02:38.921Z,26.33
2019-04-25T09:03:38.425Z,26.49
2019-04-25T09:04:38.422Z,26.74
2019-04-25T09:05:38.939Z,26.82
2019-04-25T09:06:38.634Z,26.91
2019-04-25T09:07:39.104Z,26.91
2019-04-25T09:08:39.368Z,26.96
2019-04-25T09:09:39.030Z,26.98
2019-04-25T09:10:39.984Z,27.01
2019-04-25T09:11:40.004Z,27.07
2019-04-25T09:12:38.400Z,27.18
2019-04-25T09:13:39.370Z,27.22
2019-04-25T09:14:39.012Z,27.26
2019-04-25T09:15:39.285Z,27.16
2019-04-25T09:16:38.373Z,27.13
2019-04-25T09:17:39.319Z,26.86
2019-04-25T09:18:38.376Z,26.74
2019-04-25T09:19:38.511Z,26.68
2019-04-25T09:20:40.885Z,26.63
2019-04-25T09:21:38.365Z,26.71
2019-04-25T09:22:38.661Z,27.04
2019-04-25T09:23:38.358Z,27.26
2019-04-25T09:24:38.989Z,27.37
2019-04-25T09:25:38.632Z,27.37
2019-04-25T09:26:38.390Z,27.44
2019-04-25T09:27:40.398Z,27.40
2019-04-25T09:28:40.581Z,27.35
2019-04-25T09:29:38.934Z,27.35
2019-04-25T09:30:38.493Z,27.25
2019-04-25T09:31:39.206Z,27.23
2019-04-25T09:32:38.326Z,27.01
2019-04-25T09:33:39.152Z,27.07
2019-04-25T09:34:38.318Z,27.25
2019-04-25T09:35:38.315Z,27.34
2019-04-25T09:36:38.312Z,27.37
2019-04-25T09:37:38.761Z,27.48
2019-04-25T09:38:38.853Z,27.48
2019-04-25T09:39:38.991Z,27.44
2019-04-25T09:40:38.295Z,27.44
2019-04-25T09:41:38.292Z,27.67
2019-04-25T09:42:39.301Z,27.76
2019-04-25T09:43:38.282Z,27.91
2019-04-25T09:44:39.295Z,27.98
2019-04-25T09:45:38.277Z,28.00
2019-04-25T09:46:38.273Z,27.75
2019-04-25T09:47:39.208Z,27.68
2019-04-25T09:48:38.274Z,27.58
2019-04-25T09:49:39.074Z,27.57
2019-04-25T09:50:39.397Z,27.58
2019-04-25T09:51:38.257Z,27.67
2019-04-25T09:52:38.250Z,27.71
2019-04-25T09:53:43.737Z,27.85
2019-04-25T09:54:38.241Z,28.01
2019-04-25T09:55:38.240Z,28.15
2019-04-25T09:56:38.344Z,28.41
2019-04-25T09:57:38.980Z,28.55
2019-04-25T09:58:38.234Z,28.49
2019-04-25T09:59:39.303Z,28.55
2019-04-25T10:00:38.280Z,28.53
2019-04-25T10:01:38.244Z,28.59
2019-04-25T10:02:38.264Z,28.72
2019-04-25T10:03:38.653Z,28.65
2019-04-25T10:04:39.147Z,28.67
2019-04-25T10:05:38.446Z,28.60
2019-04-25T10:06:38.910Z,28.64
2019-04-25T10:07:38.507Z,28.68
2019-04-25T10:08:38.708Z,28.83
2019-04-25T10:09:38.225Z,28.80
2019-04-25T10:10:38.891Z,28.93
2019-04-25T10:11:38.368Z,29.12
2019-04-25T10:12:38.787Z,29.34
2019-04-25T10:13:38.518Z,29.40
2019-04-25T10:14:38.942Z,29.58
2019-04-25T10:15:39.052Z,29.64
2019-04-25T10:16:39.007Z,29.62
2019-04-25T10:17:39.240Z,29.77
2019-04-25T10:18:39.159Z,29.74
2019-04-25T10:19:39.082Z,29.95
2019-04-25T10:20:38.176Z,29.89
2019-04-25T10:21:38.171Z,29.99
2019-04-25T10:22:38.837Z,30.11
2019-04-25T10:23:38.269Z,30.13
2019-04-25T10:24:38.517Z,30.21
2019-04-25T10:25:38.151Z,30.31
2019-04-25T10:26:38.974Z,30.43
2019-04-25T10:27:38.295Z,30.33
2019-04-25T10:28:38.720Z,30.26
2019-04-25T10:29:44.395Z,30.31
2019-04-25T10:30:39.422Z,30.32
2019-04-25T10:31:38.152Z,30.27
2019-04-25T10:32:38.178Z,30.29
2019-04-25T10:33:38.861Z,30.24
2019-04-25T10:34:38.153Z,30.06
2019-04-25T10:35:47.946Z,29.99
2019-04-25T10:36:39.905Z,29.67
2019-04-25T10:37:38.901Z,29.55
2019-04-25T10:38:39.326Z,29.52
2019-04-25T10:39:39.936Z,29.39
2019-04-25T10:40:38.494Z,29.13
2019-04-25T10:41:39.786Z,28.83
2019-04-25T10:42:39.007Z,28.77
2019-04-25T10:43:38.316Z,28.74
2019-04-25T10:44:38.141Z,28.74
2019-04-25T10:45:38.144Z,28.65
2019-04-25T10:46:38.124Z,28.53
2019-04-25T10:47:38.116Z,28.16
2019-04-25T10:48:39.899Z,27.98
2019-04-25T10:49:38.210Z,27.82
2019-04-25T10:50:38.142Z,27.76
2019-04-25T10:51:38.120Z,27.64
2019-04-25T10:52:38.984Z,27.60
2019-04-25T10:53:38.121Z,27.47
2019-04-25T10:54:39.710Z,27.45
2019-04-25T10:55:38.106Z,27.41
2019-04-25T10:56:38.107Z,27.55
2019-04-25T10:57:38.085Z,27.78
2019-04-25T10:58:38.078Z,27.85
2019-04-25T10:59:38.066Z,27.79
2019-04-25T11:00:38.070Z,27.94
2019-04-25T11:01:38.122Z,28.12
2019-04-25T11:02:38.071Z,28.31
2019-04-25T11:03:38.070Z,28.46
2019-04-25T11:04:38.047Z,28.59
2019-04-25T11:05:38.054Z,28.60
2019-04-25T11:06:38.065Z,28.57
2019-04-25T11:07:38.043Z,28.60
2019-04-25T11:08:38.060Z,28.57
2019-04-25T11:09:38.034Z,28.35
2019-04-25T11:10:38.046Z,28.27
2019-04-25T11:11:38.029Z,28.12
2019-04-25T11:12:38.059Z,28.01
2019-04-25T11:13:38.018Z,27.85
2019-04-25T11:14:38.038Z,27.81
2019-04-25T11:15:38.037Z,27.81
2019-04-25T11:16:38.017Z,27.66
2019-04-25T11:17:38.032Z,27.40
2019-04-25T11:18:38.361Z,27.25
2019-04-25T11:19:38.020Z,27.03
2019-04-25T11:20:38.006Z,27.03
2019-04-25T11:21:37.993Z,27.01
2019-04-25T11:22:38.051Z,27.03
2019-04-25T11:23:37.982Z,27.28
2019-04-25T11:24:38.026Z,27.43
2019-04-25T11:25:38.017Z,27.40
2019-04-25T11:26:37.987Z,27.37
2019-04-25T11:27:37.983Z,27.22
2019-04-25T11:28:38.060Z,27.19
2019-04-25T11:29:37.996Z,27.20
2019-04-25T11:30:37.987Z,27.10
2019-04-25T11:31:37.979Z,27.10
2019-04-25T11:32:37.986Z,27.15
2019-04-25T11:33:37.940Z,27.25
2019-04-25T11:34:38.615Z,27.29
2019-04-25T11:35:38.021Z,27.22
2019-04-25T11:36:38.196Z,27.18
2019-04-25T11:37:37.969Z,27.18
2019-04-25T11:38:37.962Z,27.10
2019-04-25T11:39:37.937Z,27.08
2019-04-25T11:40:37.935Z,27.08
2019-04-25T11:41:37.933Z,27.08
2019-04-25T11:42:37.903Z,27.10
2019-04-25T11:43:37.952Z,27.11
2019-04-25T11:44:37.979Z,27.07
2019-04-25T11:45:37.911Z,27.19
2019-04-25T11:46:39.301Z,27.15
2019-04-25T11:47:37.911Z,27.08
2019-04-25T11:48:37.923Z,27.01
2019-04-25T11:49:37.922Z,26.98
2019-04-25T11:50:37.878Z,27.03
2019-04-25T11:51:37.874Z,27.26
2019-04-25T11:52:37.917Z,27.22
2019-04-25T11:53:37.878Z,27.38
2019-04-25T11:54:38.039Z,27.41
2019-04-25T11:55:37.888Z,27.45
2019-04-25T11:56:37.872Z,27.52
2019-04-25T11:57:38.003Z,27.50
2019-04-25T11:58:37.873Z,27.41
2019-04-25T11:59:37.858Z,27.50
2019-04-25T12:00:37.834Z,27.38
2019-04-25T12:01:37.821Z,27.33
2019-04-25T12:02:37.843Z,27.19
2019-04-25T12:03:37.906Z,27.08
2019-04-25T12:04:37.883Z,27.05
2019-04-25T12:05:37.863Z,26.93
2019-04-25T12:06:37.807Z,27.00
2019-04-25T12:07:37.841Z,27.13
2019-04-25T12:08:37.796Z,27.29
2019-04-25T12:09:37.792Z,27.20
2019-04-25T12:10:37.846Z,27.34
2019-04-25T12:11:37.791Z,27.43
2019-04-25T12:12:37.881Z,27.37
2019-04-25T12:13:37.811Z,27.34
2019-04-25T12:14:37.813Z,27.28
2019-04-25T12:15:37.811Z,27.07
2019-04-25T12:16:37.787Z,26.93
2019-04-25T12:17:37.767Z,26.81
2019-04-25T12:18:37.781Z,26.85
2019-04-25T12:19:38.193Z,26.76
2019-04-25T12:20:37.745Z,26.64
2019-04-25T12:21:37.755Z,26.68
2019-04-25T12:22:37.772Z,26.71
2019-04-25T12:23:37.739Z,26.71
2019-04-25T12:24:37.758Z,26.79
2019-04-25T12:25:37.739Z,26.82
2019-04-25T12:26:37.760Z,26.86
2019-04-25T12:27:37.745Z,26.86
2019-04-25T12:28:37.814Z,26.97
2019-04-25T12:29:38.919Z,26.81
2019-04-25T12:30:40.328Z,26.82
2019-04-25T12:31:37.742Z,26.89
2019-04-25T12:32:37.746Z,26.89
2019-04-25T12:33:37.723Z,26.92
2019-04-25T12:34:37.711Z,26.89
2019-04-25T12:35:37.826Z,26.91
2019-04-25T12:36:37.713Z,26.91
2019-04-25T12:37:37.755Z,26.93
2019-04-25T12:38:37.705Z,26.97
2019-04-25T12:39:37.673Z,27.18
2019-04-25T12:40:37.680Z,27.48
2019-04-25T12:41:37.691Z,27.78
2019-04-25T12:42:37.654Z,27.86
2019-04-25T12:43:37.668Z,28.09
2019-04-25T12:44:37.647Z,28.30
2019-04-25T12:45:37.689Z,28.47
2019-04-25T12:46:37.655Z,28.82
2019-04-25T12:47:37.653Z,28.92
2019-04-25T12:48:37.642Z,29.12
2019-04-25T12:49:37.631Z,29.27
2019-04-25T12:50:37.645Z,29.32
2019-04-25T12:51:37.651Z,29.31
2019-04-25T12:52:37.640Z,29.27
2019-04-25T12:53:37.647Z,29.16
2019-04-25T12:54:37.642Z,28.93
2019-04-25T12:55:37.632Z,28.90
2019-04-25T12:56:37.657Z,28.93
2019-04-25T12:57:37.655Z,28.97
2019-04-25T12:58:37.648Z,29.16
2019-04-25T12:59:37.710Z,29.34
2019-04-25T13:00:47.545Z,29.49
2019-04-25T13:01:37.632Z,29.59
2019-04-25T13:02:37.622Z,29.76
2019-04-25T13:03:37.635Z,29.86